Time;durP1;ratioP1;P1;durP2;ratioP2;P2;SDS_P1;SDS_P2;PMS_P1;PMS_P2;Temp;Humidity;BMP_temperature;BMP_pressure;BME280_temperature;BME280_humidity;BME280_pressure;Samples;Min_cycle;Max_cycle;Signal;HPM_P1;HPM_P2
2021/03/06 00:01:27;;;;;;;12.32;6.50;;;;;;;-139.48;100.00;61774.03;5033866;28;20048;-70
2021/03/06 00:04:11;;;;;;;10.73;6.05;;;;;;;-139.48;100.00;61774.03;5017902;28;20068;-71
2021/03/06 00:06:55;;;;;;;9.75;5.15;;;;;;;-139.48;100.00;61774.03;5018919;28;20056;-70
2021/03/06 00:09:39;;;;;;;8.73;5.05;;;;;;;-139.48;100.00;61774.03;5018692;28;20052;-70
2021/03/06 00:12:23;;;;;;;10.20;5.20;;;;;;;-139.48;100.00;61774.03;5004794;28;20052;-70
2021/03/06 00:15:09;;;;;;;7.07;4.80;;;;;;;-139.48;100.00;61774.03;5018438;28;20052;-71
2021/03/06 00:17:54;;;;;;;7.45;4.72;;;;;;;-139.48;100.00;61774.03;5018508;28;20142;-70
2021/03/06 00:20:38;;;;;;;7.13;4.38;;;;;;;-139.48;100.00;61774.03;5033495;28;20086;-70
2021/03/06 00:23:22;;;;;;;;;;;;;;;-139.48;100.00;61774.03;5018967;28;20476;-70
2021/03/06 00:26:07;;;;;;;10.43;6.20;;;;;;;-139.48;100.00;61774.03;5018918;28;20016;-70
2021/03/06 00:28:50;;;;;;;10.43;6.78;;;;;;;-139.48;100.00;61774.03;5033245;28;20124;-70
2021/03/06 00:31:36;;;;;;;9.27;5.35;;;;;;;-139.48;100.00;61774.03;5018300;28;20103;-71
2021/03/06 00:34:20;;;;;;;7.43;4.82;;;;;;;-139.48;100.00;61774.03;5018274;28;20179;-70
2021/03/06 00:37:03;;;;;;;12.98;5.82;;;;;;;-139.48;100.00;61774.03;5004346;28;20060;-70
2021/03/06 00:39:47;;;;;;;10.20;5.45;;;;;;;-139.48;100.00;61774.03;5018480;28;20417;-71
2021/03/06 00:42:31;;;;;;;9.82;5.05;;;;;;;-139.48;100.00;61774.03;5033157;28;20084;-71
2021/03/06 00:45:16;;;;;;;10.93;5.53;;;;;;;-139.48;100.00;61774.03;5032965;28;20124;-71
2021/03/06 00:48:01;;;;;;;8.57;5.28;;;;;;;-139.48;100.00;61774.03;5033403;28;20047;-71
2021/03/06 00:50:45;;;;;;;11.75;6.30;;;;;;;-139.48;100.00;61774.03;5033258;28;20047;-70
2021/03/06 00:53:29;;;;;;;7.70;4.70;;;;;;;-139.48;100.00;61774.03;5033233;28;20167;-71
2021/03/06 00:56:13;;;;;;;10.18;6.70;;;;;;;-139.48;100.00;61774.03;5033236;28;20056;-70
2021/03/06 00:58:57;;;;;;;8.32;5.28;;;;;;;-139.48;100.00;61774.03;5033192;28;20135;-71
2021/03/06 01:01:41;;;;;;;10.00;5.47;;;;;;;-139.48;100.00;61774.03;5018211;28;20052;-71
2021/03/06 01:04:26;;;;;;;10.00;5.57;;;;;;;-139.48;100.00;61774.03;5033152;28;20068;-70
2021/03/06 01:07:10;;;;;;;8.13;5.03;;;;;;;-139.48;100.00;61774.03;5033121;28;20409;-70
2021/03/06 01:09:54;;;;;;;9.25;5.57;;;;;;;-139.48;100.00;61774.03;5018015;28;20139;-70
2021/03/06 01:12:38;;;;;;;10.40;5.13;;;;;;;-139.48;100.00;61774.03;5004230;28;20044;-70
2021/03/06 01:15:22;;;;;;;;;;;;;;;-139.48;100.00;61774.03;5019298;28;20414;-70
2021/03/06 01:18:07;;;;;;;10.25;5.72;;;;;;;-139.48;100.00;61774.03;5021671;28;20381;-71
2021/03/06 01:20:51;;;;;;;7.75;5.25;;;;;;;-139.48;100.00;61774.03;5007721;28;20515;-71
2021/03/06 01:23:35;;;;;;;7.53;5.38;;;;;;;-139.48;100.00;61774.03;5021569;28;20572;-71
2021/03/06 01:26:19;;;;;;;11.05;6.03;;;;;;;-139.48;100.00;61774.03;5021717;28;20044;-70
2021/03/06 01:29:04;;;;;;;8.93;4.93;;;;;;;-139.48;100.00;61774.03;5021775;28;20536;-70
2021/03/06 01:31:48;;;;;;;;;;;;;;;-139.48;100.00;61774.03;5036779;28;20075;-70
2021/03/06 01:34:32;;;;;;;8.70;5.53;;;;;;;-139.48;100.00;61774.03;5036577;28;20420;-70
2021/03/06 01:37:17;;;;;;;11.07;6.32;;;;;;;-139.48;100.00;61774.03;5036572;28;20064;-71
2021/03/06 01:40:15;;;;;;;9.57;5.78;;;;;;;-139.48;100.00;61774.03;5036507;28;20410;-68
2021/03/06 01:43:04;;;;;;;10.82;6.70;;;;;;;-139.48;100.00;61774.03;5021190;28;20044;-71
2021/03/06 01:45:49;;;;;;;11.32;6.38;;;;;;;-139.48;100.00;61774.03;5044044;22;20379;-64
2021/03/06 01:48:33;;;;;;;9.48;5.68;;;;;;;-139.48;100.00;61774.03;5036419;28;20117;-65
2021/03/06 01:51:18;;;;;;;8.90;5.70;;;;;;;-139.48;100.00;61774.03;5036252;28;20048;-66
2021/03/06 01:54:03;;;;;;;10.88;5.72;;;;;;;-139.48;100.00;61774.03;5035980;28;20056;-63
2021/03/06 01:56:49;;;;;;;10.25;5.68;;;;;;;-139.48;100.00;61774.03;5035870;28;20477;-66
2021/03/06 01:59:33;;;;;;;10.98;6.03;;;;;;;-139.48;100.00;61774.03;5036153;28;20513;-66
2021/03/06 02:02:18;;;;;;;9.43;5.80;;;;;;;-139.48;100.00;61774.03;5021063;28;20568;-66
2021/03/06 02:05:02;;;;;;;11.25;5.30;;;;;;;-139.48;100.00;61774.03;5020930;28;20048;-66
2021/03/06 02:07:46;;;;;;;7.90;5.10;;;;;;;-139.48;100.00;61774.03;5035685;28;20112;-64
2021/03/06 02:10:32;;;;;;;12.13;5.97;;;;;;;-139.48;100.00;61774.03;5035676;28;20040;-65
2021/03/06 02:13:38;;;;;;;8.73;5.57;;;;;;;-139.48;100.00;61774.03;5021006;28;20414;-65
2021/03/06 02:16:42;;;;;;;9.23;5.45;;;;;;;-139.48;100.00;61774.03;5035783;28;20044;-66
2021/03/06 02:19:38;;;;;;;10.38;5.70;;;;;;;-139.48;100.00;61774.03;5020877;28;20072;-66
2021/03/06 02:22:22;;;;;;;10.52;5.57;;;;;;;-139.48;100.00;61774.03;5020747;28;20133;-66
2021/03/06 02:25:35;;;;;;;9.00;5.22;;;;;;;-139.48;100.00;61774.03;5035427;28;20183;-64
2021/03/06 02:28:28;;;;;;;11.00;5.07;;;;;;;-139.48;100.00;61774.03;5019533;28;20045;-66
2021/03/06 02:31:13;;;;;;;10.38;6.00;;;;;;;-139.48;100.00;61774.03;5020732;28;20087;-66
2021/03/06 02:34:04;;;;;;;11.88;5.55;;;;;;;-139.48;100.00;61774.03;5020609;28;20060;-66
2021/03/06 02:36:53;;;;;;;8.85;5.60;;;;;;;-139.48;100.00;61774.03;5035452;28;20048;-65
2021/03/06 02:39:42;;;;;;;8.57;5.00;;;;;;;-139.48;100.00;61774.03;5020491;28;20067;-66
2021/03/06 02:42:29;;;;;;;9.75;5.68;;;;;;;-139.48;100.00;61774.03;5020134;28;20600;-64
2021/03/06 02:45:14;;;;;;;11.52;5.55;;;;;;;-139.48;100.00;61774.03;5020250;28;20159;-64
2021/03/06 02:47:58;;;;;;;11.20;5.05;;;;;;;-139.48;100.00;61774.03;5019894;28;20417;-66
2021/03/06 02:50:42;;;;;;;8.77;5.43;;;;;;;-139.48;100.00;61774.03;5020298;28;20052;-66
2021/03/06 02:53:26;;;;;;;10.60;5.72;;;;;;;-139.48;100.00;61774.03;5034982;28;20147;-66
2021/03/06 02:56:10;;;;;;;7.70;4.70;;;;;;;-139.48;100.00;61774.03;5019942;28;20048;-66
2021/03/06 02:59:16;;;;;;;8.80;5.30;;;;;;;-139.48;100.00;61774.03;5034872;28;20099;-66
2021/03/06 03:02:19;;;;;;;8.90;5.25;;;;;;;-139.48;100.00;61774.03;5019746;28;20410;-65
2021/03/06 03:05:22;;;;;;;11.02;6.05;;;;;;;-139.48;100.00;61774.03;5020115;28;20052;-65
2021/03/06 03:08:34;;;;;;;10.48;5.78;;;;;;;-139.48;100.00;61774.03;5020040;28;20053;-65
2021/03/06 03:11:21;;;;;;;8.55;4.60;;;;;;;-139.48;100.00;61774.03;5019829;28;20067;-65
2021/03/06 03:14:06;;;;;;;6.57;4.78;;;;;;;-139.48;100.00;61774.03;5035127;28;20107;-65
2021/03/06 03:17:05;;;;;;;8.20;5.00;;;;;;;-139.48;100.00;61774.03;5034405;28;20115;-65
2021/03/06 03:20:02;;;;;;;8.95;4.78;;;;;;;-139.48;100.00;61774.03;5034469;28;20045;-65
2021/03/06 03:22:50;;;;;;;7.35;4.47;;;;;;;-139.48;100.00;61774.03;5019768;28;20107;-64
2021/03/06 03:25:35;;;;;;;7.50;4.80;;;;;;;-139.48;100.00;61774.03;5019416;28;20048;-65
2021/03/06 03:28:20;;;;;;;9.95;4.88;;;;;;;-139.48;100.00;61774.03;5019324;28;20525;-65
2021/03/06 03:31:05;;;;;;;8.38;5.15;;;;;;;-139.48;100.00;61774.03;5019619;28;20056;-65
2021/03/06 03:33:49;;;;;;;8.10;4.63;;;;;;;-139.48;100.00;61774.03;5034168;28;20091;-65
2021/03/06 03:36:34;;;;;;;8.82;4.70;;;;;;;-139.48;100.00;61774.03;5019219;28;20048;-65
2021/03/06 03:39:18;;;;;;;11.65;6.00;;;;;;;-139.48;100.00;61774.03;5033965;28;20048;-65
2021/03/06 03:42:04;;;;;;;8.48;5.38;;;;;;;-139.48;100.00;61774.03;5018964;28;20106;-65
2021/03/06 03:44:49;;;;;;;7.13;4.68;;;;;;;-139.48;100.00;61774.03;5019053;28;20558;-65
2021/03/06 03:47:35;;;;;;;9.60;5.38;;;;;;;-139.48;100.00;61774.03;5034949;28;20132;-65
2021/03/06 03:50:20;;;;;;;8.90;5.30;;;;;;;-139.48;100.00;61774.03;5020198;28;20143;-65
2021/03/06 03:53:04;;;;;;;7.70;4.68;;;;;;;-139.48;100.00;61774.03;5006030;28;20405;-65
2021/03/06 03:55:49;;;;;;;7.88;5.00;;;;;;;-139.48;100.00;61774.03;5019605;28;20501;-65
2021/03/06 03:58:34;;;;;;;8.95;5.28;;;;;;;-139.48;100.00;61774.03;5035722;28;20064;-65
2021/03/06 04:01:17;;;;;;;;;;;;;;;-139.48;100.00;61774.03;5036852;28;20052;-65
2021/03/06 04:04:02;;;;;;;6.75;4.70;;;;;;;-139.48;100.00;61774.03;5034418;28;19920;-65
2021/03/06 04:06:46;;;;;;;9.23;5.05;;;;;;;-139.48;100.00;61774.03;5033790;28;20514;-65
2021/03/06 04:09:30;;;;;;;6.93;4.90;;;;;;;-139.48;100.00;61774.03;5033771;28;20509;-65
2021/03/06 04:12:14;;;;;;;8.18;5.03;;;;;;;-139.48;100.00;61774.03;5033807;28;20608;-65
2021/03/06 04:14:57;;;;;;;7.85;5.28;;;;;;;-139.48;100.00;61774.03;5018813;28;20517;-64
2021/03/06 04:17:41;;;;;;;;;;;;;;;-139.48;100.00;61774.03;5005126;28;20122;-65
2021/03/06 04:20:26;;;;;;;11.02;5.20;;;;;;;-139.48;100.00;61774.03;5018359;28;19920;-65
2021/03/06 04:23:10;;;;;;;9.68;5.22;;;;;;;-139.48;100.00;61774.03;5018785;28;20072;-65
2021/03/06 04:25:54;;;;;;;8.75;5.38;;;;;;;-139.48;100.00;61774.03;5033247;28;20048;-64
2021/03/06 04:28:38;;;;;;;;;;;;;;;-139.48;100.00;61774.03;5033719;28;20056;-65
2021/03/06 04:31:23;;;;;;;8.73;5.10;;;;;;;-139.48;100.00;61774.03;5033835;28;19970;-63
2021/03/06 04:34:07;;;;;;;10.25;5.88;;;;;;;-139.48;100.00;61774.03;5033226;28;20110;-63
2021/03/06 04:36:51;;;;;;;8.40;4.70;;;;;;;-139.48;100.00;61774.03;5033219;28;20049;-65
2021/03/06 04:39:35;;;;;;;9.55;5.50;;;;;;;-139.48;100.00;61774.03;5033461;28;20100;-65
2021/03/06 04:42:19;;;;;;;9.15;4.55;;;;;;;-139.48;100.00;61774.03;5033299;28;20053;-65
2021/03/06 04:45:05;;;;;;;8.65;5.10;;;;;;;-139.48;100.00;61774.03;5033316;28;20103;-65
2021/03/06 04:47:49;;;;;;;7.85;5.03;;;;;;;-139.48;100.00;61774.03;5017953;28;20159;-65
2021/03/06 04:50:33;;;;;;;;;;;;;;;-139.48;100.00;61774.03;5006380;28;20110;-65
2021/03/06 04:53:17;;;;;;;8.23;3.60;;;;;;;-139.48;100.00;61774.03;5037449;28;19936;-65
2021/03/06 04:56:02;;;;;;;7.28;4.63;;;;;;;-139.48;100.00;61774.03;5037253;28;20464;-65
2021/03/06 04:58:46;;;;;;;8.23;4.70;;;;;;;-139.48;100.00;61774.03;5022160;28;20048;-65
2021/03/06 05:01:30;;;;;;;8.02;4.70;;;;;;;-139.48;100.00;61774.03;5022134;28;20056;-65
2021/03/06 05:04:14;;;;;;;8.50;4.93;;;;;;;-139.48;100.00;61774.03;5037205;28;20509;-65
2021/03/06 05:06:59;;;;;;;8.55;5.32;;;;;;;-139.48;100.00;61774.03;5021919;28;20051;-63
2021/03/06 05:09:43;;;;;;;8.07;4.68;;;;;;;-139.48;100.00;61774.03;5036834;28;20103;-65
2021/03/06 05:12:27;;;;;;;7.45;4.28;;;;;;;-139.48;100.00;61774.03;5021848;28;20047;-65
2021/03/06 05:15:11;;;;;;;9.40;5.18;;;;;;;-139.48;100.00;61774.03;5022086;28;20437;-65
2021/03/06 05:17:56;;;;;;;10.50;5.15;;;;;;;-139.48;100.00;61774.03;5036611;28;20060;-65
2021/03/06 05:20:40;;;;;;;9.55;4.95;;;;;;;-139.48;100.00;61774.03;5036859;28;20148;-65
2021/03/06 05:23:28;;;;;;;12.02;5.85;;;;;;;-139.48;100.00;61774.03;5021942;28;20125;-65
2021/03/06 05:26:12;;;;;;;10.50;5.20;;;;;;;-139.48;100.00;61774.03;5021689;28;20052;-65
2021/03/06 05:28:56;;;;;;;7.22;4.88;;;;;;;-139.48;100.00;61774.03;5037142;28;20052;-64
2021/03/06 05:31:40;;;;;;;;;;;;;;;-139.48;100.00;61774.03;5022168;28;20120;-64
2021/03/06 05:34:25;;;;;;;8.85;5.65;;;;;;;-139.48;100.00;61774.03;5037163;28;19920;-65
2021/03/06 05:37:09;;;;;;;7.90;4.65;;;;;;;-139.48;100.00;61774.03;5036388;28;20056;-63
2021/03/06 05:39:54;;;;;;;7.88;4.72;;;;;;;-139.48;100.00;61774.03;5021772;28;20095;-65
2021/03/06 05:42:38;;;;;;;11.55;5.30;;;;;;;-139.48;100.00;61774.03;5036273;28;20075;-65
2021/03/06 05:45:22;;;;;;;12.07;5.28;;;;;;;-139.48;100.00;61774.03;5036491;28;20099;-65
2021/03/06 05:48:06;;;;;;;9.18;5.60;;;;;;;-139.48;100.00;61774.03;5036705;28;20095;-65
2021/03/06 05:50:52;;;;;;;9.73;5.45;;;;;;;-139.48;100.00;61774.03;5036126;28;20048;-64
2021/03/06 05:53:39;;;;;;;9.18;5.22;;;;;;;-139.48;100.00;61774.03;5021628;28;20124;-64
2021/03/06 05:56:24;;;;;;;6.10;4.50;;;;;;;-139.48;100.00;61774.03;5021013;28;20143;-65
2021/03/06 05:59:11;;;;;;;8.98;5.63;;;;;;;-139.48;100.00;61774.03;5035946;28;20524;-64
2021/03/06 06:01:55;;;;;;;7.95;4.80;;;;;;;-139.48;100.00;61774.03;5005652;28;20095;-65
2021/03/06 06:04:40;;;;;;;7.57;5.68;;;;;;;-139.48;100.00;61774.03;5035837;28;20472;-64
2021/03/06 06:07:26;;;;;;;10.55;5.70;;;;;;;-139.48;100.00;61774.03;5036003;28;20525;-65
2021/03/06 06:10:11;;;;;;;8.88;5.25;;;;;;;-139.48;100.00;61774.03;5020803;28;20517;-64
2021/03/06 06:12:55;;;;;;;10.13;5.53;;;;;;;-139.48;100.00;61774.03;5035671;28;20047;-65
2021/03/06 06:15:40;;;;;;;9.93;5.68;;;;;;;-139.48;100.00;61774.03;5035843;28;20118;-65
2021/03/06 06:18:25;;;;;;;7.30;4.68;;;;;;;-139.48;100.00;61774.03;5035622;28;20048;-65
2021/03/06 06:21:38;;;;;;;9.25;4.85;;;;;;;-139.48;100.00;61774.03;5035789;28;20084;-64
2021/03/06 06:24:22;;;;;;;8.18;4.85;;;;;;;-139.48;100.00;61774.03;5035672;28;20049;-65
2021/03/06 06:27:07;;;;;;;9.27;4.97;;;;;;;-139.48;100.00;61774.03;5020849;28;20099;-64
2021/03/06 06:29:51;;;;;;;;;;;;;;;-139.48;100.00;61774.03;5036109;28;20052;-63
2021/03/06 06:32:46;;;;;;;7.25;4.22;;;;;;;-139.48;100.00;61774.03;5020706;28;20384;-65
2021/03/06 06:35:42;;;;;;;9.57;5.53;;;;;;;-139.48;100.00;61774.03;5035206;28;20532;-65
2021/03/06 06:38:40;;;;;;;9.07;5.00;;;;;;;-139.48;100.00;61774.03;5035527;28;20452;-64
2021/03/06 06:41:25;;;;;;;7.97;4.63;;;;;;;-139.48;100.00;61774.03;5020322;28;20128;-65
2021/03/06 06:44:09;;;;;;;7.32;4.28;;;;;;;-139.48;100.00;61774.03;5034506;28;20044;-64
2021/03/06 06:46:54;;;;;;;8.75;5.47;;;;;;;-139.48;100.00;61774.03;5034762;28;20044;-65
2021/03/06 06:49:53;;;;;;;8.25;4.75;;;;;;;-139.48;100.00;61774.03;5019706;28;20060;-65
2021/03/06 06:52:39;;;;;;;6.68;4.32;;;;;;;-139.48;100.00;61774.03;5019446;28;20084;-64
2021/03/06 06:55:44;;;;;;;8.77;4.63;;;;;;;-139.48;100.00;61774.03;5019786;28;20048;-65
2021/03/06 06:58:34;;;;;;;7.30;4.68;;;;;;;-139.48;100.00;61774.03;5034334;28;20060;-64
2021/03/06 07:01:28;;;;;;;7.55;4.35;;;;;;;-139.48;100.00;61774.03;5034185;28;20525;-65
2021/03/06 07:04:12;;;;;;;7.60;4.80;;;;;;;-139.48;100.00;61774.03;5034414;28;20044;-64
2021/03/06 07:06:57;;;;;;;8.80;4.80;;;;;;;-139.48;100.00;61774.03;5034315;28;20489;-65
2021/03/06 07:10:04;;;;;;;9.07;5.20;;;;;;;-139.48;100.00;61774.03;5019097;28;20139;-65
2021/03/06 07:13:09;;;;;;;6.07;4.28;;;;;;;-139.48;100.00;61774.03;5033552;28;20080;-65
2021/03/06 07:15:54;;;;;;;8.43;4.65;;;;;;;-139.48;100.00;61774.03;5018902;28;20053;-65
2021/03/06 07:18:38;;;;;;;9.07;4.82;;;;;;;-139.48;100.00;61774.03;5033840;28;20056;-65
2021/03/06 07:21:23;;;;;;;7.90;4.97;;;;;;;-139.48;100.00;61774.03;5033998;28;20509;-65
2021/03/06 07:24:07;;;;;;;7.53;4.40;;;;;;;-139.48;100.00;61774.03;5033759;28;20049;-65
2021/03/06 07:26:52;;;;;;;6.18;4.43;;;;;;;-139.48;100.00;61774.03;5033846;28;20099;-64
2021/03/06 07:29:36;;;;;;;6.20;4.00;;;;;;;-139.48;100.00;61774.03;5018927;28;20083;-63
2021/03/06 07:32:26;;;;;;;5.70;3.97;;;;;;;-139.48;100.00;61774.03;5018859;28;20477;-65
2021/03/06 07:35:12;;;;;;;5.95;3.47;;;;;;;-139.48;100.00;61774.03;5018895;28;20131;-65
2021/03/06 07:37:58;;;;;;;8.02;4.32;;;;;;;-139.48;100.00;61774.03;5033382;28;20087;-65
2021/03/06 07:40:46;;;;;;;6.80;4.32;;;;;;;-139.48;100.00;61774.03;5018397;28;20041;-65
2021/03/06 07:43:33;;;;;;;5.07;3.58;;;;;;;-139.48;100.00;61774.03;5018440;28;20131;-65
2021/03/06 07:46:17;;;;;;;5.40;3.78;;;;;;;-139.48;100.00;61774.03;5018186;28;20087;-65
2021/03/06 07:49:09;;;;;;;5.50;3.45;;;;;;;-139.48;100.00;61774.03;5018688;28;20088;-65
2021/03/06 07:51:55;;;;;;;4.85;3.70;;;;;;;-139.48;100.00;61774.03;5033180;28;20048;-66
2021/03/06 07:54:39;;;;;;;7.60;4.22;;;;;;;-139.48;100.00;61774.03;5018421;28;20517;-65
2021/03/06 07:57:24;;;;;;;5.15;3.60;;;;;;;-139.48;100.00;61774.03;5018410;28;20048;-66
2021/03/06 08:00:08;;;;;;;7.30;3.85;;;;;;;-139.48;100.00;61774.03;5033219;28;20088;-64
2021/03/06 08:05:42;;;;;;;4.82;3.47;;;;;;;-139.48;100.00;61774.03;5012489;28;20568;-69
2021/03/06 08:08:32;;;;;;;6.55;3.72;;;;;;;-139.48;100.00;61774.03;5013321;28;20157;-69
2021/03/06 08:11:21;;;;;;;4.78;3.70;;;;;;;-139.48;100.00;61774.03;5013138;28;20057;-69
2021/03/06 08:14:25;;;;;;;6.13;4.00;;;;;;;-139.48;100.00;61774.03;4998397;28;20517;-69
2021/03/06 08:17:36;;;;;;;5.65;3.60;;;;;;;-139.48;100.00;61774.03;4998163;28;20120;-68
2021/03/06 08:20:30;;;;;;;6.43;4.05;;;;;;;-139.48;100.00;61774.03;4984739;28;20096;-69
2021/03/06 08:23:22;;;;;;;6.55;3.85;;;;;;;-139.48;100.00;61774.03;5012999;28;20499;-71
2021/03/06 08:26:18;;;;;;;7.18;4.03;;;;;;;-139.48;100.00;61774.03;4997460;28;20049;-71
2021/03/06 08:29:29;;;;;;;6.55;4.00;;;;;;;-139.48;100.00;61774.03;5013365;28;20076;-70
2021/03/06 08:32:23;;;;;;;5.28;3.65;;;;;;;-139.48;100.00;61774.03;5013257;28;20088;-71
2021/03/06 08:35:18;;;;;;;6.43;4.38;;;;;;;-139.48;100.00;61774.03;5012824;28;20052;-71
2021/03/06 08:38:02;;;;;;;;;;;;;;;-139.48;100.00;61774.03;5013498;28;20049;-69
2021/03/06 08:40:46;;;;;;;6.53;4.35;;;;;;;-139.48;100.00;61774.03;4998102;28;20016;-69
2021/03/06 08:43:30;;;;;;;7.25;4.60;;;;;;;-139.48;100.00;61774.03;5012753;28;20052;-68
2021/03/06 08:46:14;;;;;;;5.85;4.25;;;;;;;-139.48;100.00;61774.03;4984528;28;20549;-70
2021/03/06 08:48:58;;;;;;;7.53;4.25;;;;;;;-139.48;100.00;61774.03;5012740;28;20120;-69
2021/03/06 08:51:42;;;;;;;6.88;4.25;;;;;;;-139.48;100.00;61774.03;4997890;28;20406;-69
2021/03/06 08:54:27;;;;;;;7.78;4.68;;;;;;;-139.48;100.00;61774.03;5012810;28;20544;-72
2021/03/06 08:57:32;;;;;;;6.45;4.65;;;;;;;-139.48;100.00;61774.03;4997794;28;20045;-71
2021/03/06 09:00:27;;;;;;;5.05;3.75;;;;;;;-139.48;100.00;61774.03;4998240;28;20068;-68
2021/03/06 09:03:16;;;;;;;8.80;4.90;;;;;;;-139.48;100.00;61774.03;4997493;28;20080;-72
2021/03/06 09:06:01;;;;;;;9.82;4.50;;;;;;;-139.48;100.00;61774.03;5012591;28;20049;-72
2021/03/06 09:08:53;;;;;;;7.03;4.65;;;;;;;-139.48;100.00;61774.03;4997775;28;20064;-71
2021/03/06 09:11:53;;;;;;;7.28;4.97;;;;;;;-139.48;100.00;61774.03;5012555;28;20040;-69
2021/03/06 09:14:40;;;;;;;7.13;4.82;;;;;;;-139.48;100.00;61774.03;5012448;28;20044;-67
2021/03/06 09:17:24;;;;;;;7.20;5.20;;;;;;;-139.48;100.00;61774.03;4997774;28;20052;-71
2021/03/06 09:20:09;;;;;;;7.63;5.15;;;;;;;-139.48;100.00;61774.03;5012489;28;20056;-71
2021/03/06 09:22:53;;;;;;;6.32;4.10;;;;;;;-139.48;100.00;61774.03;4997432;28;20092;-69
2021/03/06 09:25:39;;;;;;;7.15;4.72;;;;;;;-139.48;100.00;61774.03;4997375;28;20100;-71
2021/03/06 09:28:26;;;;;;;10.88;5.03;;;;;;;-139.48;100.00;61774.03;5012477;28;20068;-70
2021/03/06 09:31:11;;;;;;;6.35;4.63;;;;;;;-139.48;100.00;61774.03;5012342;28;20064;-70
2021/03/06 09:33:56;;;;;;;7.28;4.75;;;;;;;-139.48;100.00;61774.03;4983842;28;20073;-70
2021/03/06 09:36:41;;;;;;;10.07;4.55;;;;;;;-139.48;100.00;61774.03;5013763;28;20052;-70
2021/03/06 09:39:25;;;;;;;9.05;4.65;;;;;;;-139.48;100.00;61774.03;5016222;28;20108;-70
2021/03/06 09:42:15;;;;;;;6.82;4.60;;;;;;;-139.48;100.00;61774.03;5000973;28;20045;-70
2021/03/06 09:44:59;;;;;;;5.97;4.68;;;;;;;-139.48;100.00;61774.03;5015896;28;20049;-70
2021/03/06 09:47:44;;;;;;;9.15;4.82;;;;;;;-139.48;100.00;61774.03;5016035;28;20123;-70
2021/03/06 09:50:28;;;;;;;5.60;4.53;;;;;;;-139.48;100.00;61774.03;5015991;28;20053;-70
2021/03/06 09:53:21;;;;;;;6.57;4.47;;;;;;;-139.48;100.00;61774.03;5015696;28;20096;-70
2021/03/06 09:56:10;;;;;;;7.47;5.47;;;;;;;-139.48;100.00;61774.03;5001065;28;20107;-70
2021/03/06 09:59:03;;;;;;;4.97;4.45;;;;;;;-139.48;100.00;61774.03;5001007;28;20108;-70
2021/03/06 10:01:47;;;;;;;6.88;4.22;;;;;;;-139.48;100.00;61774.03;5015499;28;20048;-70
2021/03/06 10:04:31;;;;;;;6.35;4.65;;;;;;;-139.48;100.00;61774.03;5000873;28;20146;-70
2021/03/06 10:07:20;;;;;;;7.15;4.93;;;;;;;-139.48;100.00;61774.03;4986756;28;20052;-70
2021/03/06 10:10:05;;;;;;;6.93;4.60;;;;;;;-139.48;100.00;61774.03;5000846;28;20056;-69
2021/03/06 10:12:49;;;;;;;5.85;4.47;;;;;;;-139.48;100.00;61774.03;5015615;28;20045;-70
2021/03/06 10:15:34;;;;;;;5.78;4.25;;;;;;;-139.48;100.00;61774.03;5015513;28;20104;-70
2021/03/06 10:18:18;;;;;;;;;;;;;;;-139.48;100.00;61774.03;5015875;28;20068;-70
2021/03/06 10:21:12;;;;;;;5.13;4.35;;;;;;;-139.48;100.00;61774.03;5000290;28;19920;-70
2021/03/06 10:24:02;;;;;;;6.80;4.75;;;;;;;-139.48;100.00;61774.03;5015324;28;20064;-70
2021/03/06 10:26:54;;;;;;;6.95;4.75;;;;;;;-139.48;100.00;61774.03;5015286;28;20084;-70
2021/03/06 10:29:38;;;;;;;5.63;4.22;;;;;;;-139.48;100.00;61774.03;5000079;28;20056;-70
2021/03/06 10:32:22;;;;;;;6.53;4.50;;;;;;;-139.48;100.00;61774.03;5014971;28;20108;-71
2021/03/06 10:35:07;;;;;;;7.25;5.32;;;;;;;-139.48;100.00;61774.03;5015092;28;20143;-71
2021/03/06 10:37:51;;;;;;;4.50;4.10;;;;;;;-139.48;100.00;61774.03;4999973;28;20053;-71
2021/03/06 10:40:39;;;;;;;5.95;4.50;;;;;;;-139.48;100.00;61774.03;4999749;28;20072;-71
2021/03/06 10:43:25;;;;;;;6.90;5.05;;;;;;;-139.48;100.00;61774.03;5014797;28;20510;-69
2021/03/06 10:46:34;;;;;;;7.88;4.90;;;;;;;-139.48;100.00;61774.03;5014723;28;20100;-71
2021/03/06 10:49:19;;;;;;;4.65;4.15;;;;;;;-139.48;100.00;61774.03;5000485;28;20052;-71
2021/03/06 10:52:05;;;;;;;4.97;4.28;;;;;;;-139.48;100.00;61774.03;5014621;28;20048;-70
2021/03/06 10:54:51;;;;;;;10.02;5.30;;;;;;;-139.48;100.00;61774.03;4986211;28;20482;-70
2021/03/06 10:57:51;;;;;;;4.82;4.25;;;;;;;-139.48;100.00;61774.03;4999537;28;20478;-71
2021/03/06 11:00:37;;;;;;;6.70;4.63;;;;;;;-139.48;100.00;61774.03;5014280;28;20129;-71
2021/03/06 11:03:22;;;;;;;5.63;4.47;;;;;;;-139.48;100.00;61774.03;5014448;28;20112;-71
2021/03/06 11:06:06;;;;;;;;;;;;;;;-139.48;100.00;61774.03;4999929;28;20617;-71
2021/03/06 11:09:06;;;;;;;7.22;4.78;;;;;;;-139.48;100.00;61774.03;4999678;28;19936;-70
2021/03/06 11:11:51;;;;;;;6.72;4.53;;;;;;;-139.48;100.00;61774.03;4999358;28;20041;-71
2021/03/06 11:14:35;;;;;;;5.35;4.57;;;;;;;-139.48;100.00;61774.03;4999570;28;20422;-70
2021/03/06 11:17:19;;;;;;;;;;;;;;;-139.48;100.00;61774.03;4999646;28;20100;-70
2021/03/06 11:20:04;;;;;;;5.32;4.78;;;;;;;-139.48;100.00;61774.03;5014095;28;19919;-71
2021/03/06 11:22:49;;;;;;;5.22;4.32;;;;;;;-139.48;100.00;61774.03;4985513;28;20462;-71
2021/03/06 11:25:33;;;;;;;6.45;4.70;;;;;;;-139.48;100.00;61774.03;5014003;28;20091;-71
2021/03/06 11:28:17;;;;;;;4.78;4.38;;;;;;;-139.48;100.00;61774.03;4999162;28;20088;-71
2021/03/06 11:31:02;;;;;;;5.13;4.30;;;;;;;-139.48;100.00;61774.03;5013966;28;20505;-71
2021/03/06 11:33:46;;;;;;;6.97;4.90;;;;;;;-139.48;100.00;61774.03;4999025;28;20521;-70
2021/03/06 11:36:30;;;;;;;4.35;3.95;;;;;;;-139.48;100.00;61774.03;4999099;28;20406;-71
2021/03/06 11:39:15;;;;;;;8.30;4.30;;;;;;;-139.48;100.00;61774.03;5014608;28;20099;-70
2021/03/06 11:41:59;;;;;;;5.03;4.53;;;;;;;-139.48;100.00;61774.03;4998918;28;20134;-71
2021/03/06 11:44:43;;;;;;;7.65;4.68;;;;;;;-139.48;100.00;61774.03;5013491;28;20413;-71
2021/03/06 11:47:27;;;;;;;5.53;4.72;;;;;;;-139.48;100.00;61774.03;5013752;28;20048;-71
2021/03/06 11:50:13;;;;;;;4.57;4.18;;;;;;;-139.48;100.00;61774.03;4998915;28;20052;-70
2021/03/06 11:52:58;;;;;;;4.75;4.28;;;;;;;-139.48;100.00;61774.03;5013624;28;20052;-71
2021/03/06 11:55:42;;;;;;;4.78;4.32;;;;;;;-139.48;100.00;61774.03;4998579;28;20136;-71
2021/03/06 11:58:26;;;;;;;5.97;4.07;;;;;;;-139.48;100.00;61774.03;4998812;28;20052;-72
2021/03/06 12:01:10;;;;;;;5.13;4.20;;;;;;;-139.48;100.00;61774.03;5013593;28;20044;-71
2021/03/06 12:03:57;;;;;;;4.70;4.25;;;;;;;-139.48;100.00;61774.03;5013504;28;20056;-71
2021/03/06 12:06:41;;;;;;;4.57;4.10;;;;;;;-139.48;100.00;61774.03;5013273;28;20199;-71
2021/03/06 12:09:25;;;;;;;4.95;4.50;;;;;;;-139.48;100.00;61774.03;4998387;28;20512;-71
2021/03/06 12:12:09;;;;;;;5.10;4.20;;;;;;;-139.48;100.00;61774.03;5013306;28;20096;-70
2021/03/06 12:14:54;;;;;;;6.82;4.72;;;;;;;-139.48;100.00;61774.03;5013119;28;20064;-71
2021/03/06 12:17:38;;;;;;;4.38;3.97;;;;;;;-139.48;100.00;61774.03;5013339;28;20476;-70
2021/03/06 12:20:23;;;;;;;5.25;4.43;;;;;;;-139.48;100.00;61774.03;5013096;28;20048;-71
2021/03/06 12:23:07;;;;;;;4.55;4.07;;;;;;;-139.48;100.00;61774.03;5013223;28;20498;-71
2021/03/06 12:25:52;;;;;;;4.70;4.20;;;;;;;-139.48;100.00;61774.03;5013612;28;20195;-71
2021/03/06 12:28:36;;;;;;;4.63;4.05;;;;;;;-139.48;100.00;61774.03;4998353;28;20048;-71
2021/03/06 12:31:20;;;;;;;4.20;3.80;;;;;;;-139.48;100.00;61774.03;5013102;28;20044;-71
2021/03/06 12:34:06;;;;;;;32.75;29.35;;;;;;;-139.48;100.00;61774.03;4997919;28;20510;-70
2021/03/06 12:36:50;;;;;;;6.22;5.63;;;;;;;-139.48;100.00;61774.03;4998111;28;20155;-70
2021/03/06 12:39:34;;;;;;;5.97;5.38;;;;;;;-139.48;100.00;61774.03;4998171;28;20560;-71
2021/03/06 12:42:19;;;;;;;9.48;8.57;;;;;;;-139.48;100.00;61774.03;5012868;28;20081;-71
2021/03/06 12:45:05;;;;;;;9.98;9.18;;;;;;;-139.48;100.00;61774.03;5012980;28;20085;-69